Time;durP1;ratioP1;P1;durP2;ratioP2;P2;SDS_P1;SDS_P2;PMS_P1;PMS_P2;Temp;Humidity;BMP_temperature;BMP_pressure;BME280_temperature;BME280_humidity;BME280_pressure;Samples;Min_cycle;Max_cycle;Signal;HPM_P1;HPM_P2
2020/12/20 00:02:23;;;;;;;63.08;23.73;;;;;;;3.67;96.82;100275.57;1793191;80;21103;-68
2020/12/20 00:04:51;;;;;;;55.35;24.12;;;;;;;3.72;96.86;100283.91;1784420;80;21182;-69
2020/12/20 00:07:21;;;;;;;59.20;23.98;;;;;;;3.73;96.79;100283.98;1779378;80;21103;-70
2020/12/20 00:09:49;;;;;;;51.77;21.82;;;;;;;3.72;96.63;100277.53;1779481;81;21261;-70
2020/12/20 00:12:17;;;;;;;48.98;22.87;;;;;;;3.73;96.76;100281.83;1779529;79;21573;-74
2020/12/20 00:14:44;;;;;;;47.65;22.07;;;;;;;3.74;96.70;100282.30;1779226;79;21112;-70
2020/12/20 00:17:12;;;;;;;53.63;22.70;;;;;;;3.70;96.59;100285.95;1779305;81;21598;-73
2020/12/20 00:19:42;;;;;;;48.17;20.97;;;;;;;3.69;96.66;100288.44;1779160;79;21115;-74
2020/12/20 00:22:13;;;;;;;50.35;20.55;;;;;;;3.66;96.63;100289.14;1779553;81;21320;-72
2020/12/20 00:24:43;;;;;;;51.65;21.23;;;;;;;3.63;96.72;100290.20;1779824;81;21281;-73
2020/12/20 00:27:10;;;;;;;53.70;21.23;;;;;;;3.60;96.65;100290.44;1779209;79;21123;-72
2020/12/20 00:29:41;;;;;;;50.95;22.02;;;;;;;3.60;96.92;100300.24;1779209;79;21159;-71
2020/12/20 00:32:11;;;;;;;54.03;22.90;;;;;;;3.61;96.88;100296.01;1779312;81;21166;-71
2020/12/20 00:34:40;;;;;;;45.03;21.20;;;;;;;3.57;96.85;100289.85;1779440;79;21171;-72
2020/12/20 00:37:07;;;;;;;54.98;22.42;;;;;;;3.55;96.85;100293.10;1779233;81;21274;-72
2020/12/20 00:39:36;;;;;;;50.58;20.48;;;;;;;3.54;96.90;100290.95;1779410;79;21139;-71
2020/12/20 00:42:06;;;;;;;52.20;22.85;;;;;;;3.54;96.96;100286.25;1779453;81;21677;-75
2020/12/20 00:44:35;;;;;;;52.93;22.93;;;;;;;3.56;97.03;100281.72;1779503;81;21277;-73
2020/12/20 00:47:04;;;;;;;45.75;21.27;;;;;;;3.57;97.06;100278.37;1779611;79;21115;-71
2020/12/20 00:49:34;;;;;;;52.35;23.47;;;;;;;3.60;96.95;100275.99;1780159;81;21246;-69
2020/12/20 00:52:07;;;;;;;56.25;24.55;;;;;;;3.61;96.96;100273.95;1779497;79;21135;-69
2020/12/20 00:54:36;;;;;;;53.63;23.62;;;;;;;3.67;97.06;100274.30;1780056;81;21277;-69
2020/12/20 00:57:05;;;;;;;52.50;22.15;;;;;;;3.70;96.86;100273.19;1779701;79;21144;-70
2020/12/20 00:59:33;;;;;;;47.98;21.77;;;;;;;3.72;96.58;100277.13;1779968;79;21155;-69
2020/12/20 01:02:01;;;;;;;46.83;21.52;;;;;;;3.67;96.48;100282.36;1779783;81;21170;-72
2020/12/20 01:04:31;;;;;;;44.73;20.25;;;;;;;3.67;96.68;100284.50;1784270;80;21166;-69
2020/12/20 01:06:59;;;;;;;38.75;18.23;;;;;;;3.69;96.61;100279.10;1793046;79;21115;-72
2020/12/20 01:09:29;;;;;;;41.40;18.48;;;;;;;3.74;96.48;100278.11;1793200;80;21122;-74
2020/12/20 01:11:59;;;;;;;38.70;18.30;;;;;;;3.75;96.20;100282.81;1793224;80;21146;-72
2020/12/20 01:14:29;;;;;;;38.48;18.07;;;;;;;3.75;96.00;100287.92;1790510;80;21560;-71
2020/12/20 01:17:04;;;;;;;34.43;15.32;;;;;;;3.73;95.88;100280.55;1792790;79;21158;-74
2020/12/20 01:19:33;;;;;;;33.18;16.00;;;;;;;3.66;95.77;100278.02;1774664;80;21300;-70
2020/12/20 01:22:01;;;;;;;34.08;16.48;;;;;;;3.54;95.79;100282.42;1793194;80;21151;-73
2020/12/20 01:24:29;;;;;;;35.43;17.30;;;;;;;3.52;96.17;100279.77;1793304;80;21143;-68
2020/12/20 01:26:56;;;;;;;38.50;20.37;;;;;;;3.53;96.22;100284.47;1793192;80;21107;-74
2020/12/20 01:29:24;;;;;;;34.45;16.27;;;;;;;3.59;96.33;100280.63;1793124;80;21119;-71
2020/12/20 01:31:52;;;;;;;42.38;19.32;;;;;;;3.63;96.15;100283.83;1793111;78;21119;-73
2020/12/20 01:34:24;;;;;;;37.88;17.15;;;;;;;3.62;96.04;100287.58;1793217;79;21103;-68
2020/12/20 01:36:56;;;;;;;38.95;18.07;;;;;;;3.60;96.15;100288.75;1793017;79;21285;-72
2020/12/20 01:39:24;;;;;;;38.38;17.40;;;;;;;3.61;96.22;100287.98;1793218;80;21281;-73
2020/12/20 01:41:53;;;;;;;44.00;17.57;;;;;;;3.62;96.15;100285.91;1793089;79;21166;-74
2020/12/20 01:44:23;;;;;;;43.17;17.17;;;;;;;3.61;96.11;100286.70;1792624;79;21270;-72
2020/12/20 01:46:53;;;;;;;44.33;18.67;;;;;;;3.59;96.14;100294.66;1793297;80;21533;-70
2020/12/20 01:49:21;;;;;;;48.73;19.60;;;;;;;3.59;96.23;100296.34;1793127;79;21146;-76
2020/12/20 01:51:49;;;;;;;46.00;20.68;;;;;;;3.60;96.33;100299.37;1793515;80;21472;-75
2020/12/20 01:54:17;;;;;;;39.63;16.67;;;;;;;3.61;96.37;100294.73;1793170;80;21123;-73
2020/12/20 01:56:47;;;;;;;36.88;16.93;;;;;;;3.61;96.34;100287.98;1791259;78;21589;-71
2020/12/20 01:59:16;;;;;;;39.60;16.20;;;;;;;3.62;96.25;100287.18;1792669;79;21288;-68
2020/12/20 02:01:46;;;;;;;42.73;15.45;;;;;;;3.61;96.17;100293.09;1793003;80;21151;-69
2020/12/20 02:04:18;;;;;;;32.55;17.23;;;;;;;3.59;96.17;100290.83;1790217;79;21210;-72
2020/12/20 02:06:47;;;;;;;40.63;18.65;;;;;;;3.56;96.22;100290.66;1779464;79;21111;-70
2020/12/20 02:09:18;;;;;;;44.77;19.12;;;;;;;3.55;96.36;100295.25;1779288;80;21676;-71
2020/12/20 02:11:48;;;;;;;32.98;15.80;;;;;;;3.56;96.49;100292.30;1779393;80;21116;-73
2020/12/20 02:14:19;;;;;;;43.68;19.45;;;;;;;3.55;96.36;100295.25;1779331;79;21292;-74
2020/12/20 02:16:48;;;;;;;38.73;18.23;;;;;;;3.56;96.45;100295.77;1778944;79;21139;-73
2020/12/20 02:19:21;;;;;;;39.58;17.23;;;;;;;3.60;96.57;100296.41;1779294;79;21597;-74
2020/12/20 02:21:50;;;;;;;39.13;18.23;;;;;;;3.57;96.33;100300.06;1778841;80;21293;-73
2020/12/20 02:24:19;;;;;;;36.17;16.95;;;;;;;3.57;96.57;100294.95;1779440;81;21245;-71
2020/12/20 02:26:49;;;;;;;33.05;16.17;;;;;;;3.61;96.72;100299.47;1779160;79;21147;-71
2020/12/20 02:29:17;;;;;;;44.38;17.25;;;;;;;3.67;96.49;100302.38;1779450;80;21288;-71
2020/12/20 02:31:45;;;;;;;42.03;15.93;;;;;;;3.70;96.39;100297.85;1779511;79;21147;-73
2020/12/20 02:34:13;;;;;;;28.38;14.23;;;;;;;3.69;96.20;100301.20;1779600;81;21135;-71
2020/12/20 02:36:43;;;;;;;35.70;16.10;;;;;;;3.67;96.07;100297.67;1779458;80;21143;-70
2020/12/20 02:39:12;;;;;;;33.98;15.03;;;;;;;3.69;96.09;100296.98;1779305;80;21127;-70
2020/12/20 02:41:56;;;;;;;37.63;14.75;;;;;;;3.72;95.98;100295.00;1779108;80;21159;-74
2020/12/20 02:44:25;;;;;;;37.65;16.90;;;;;;;3.74;96.08;100302.73;1779323;80;21115;-75
2020/12/20 02:46:55;;;;;;;39.40;17.10;;;;;;;3.76;96.07;100300.75;1779301;79;21132;-69
2020/12/20 02:49:24;;;;;;;28.35;14.20;;;;;;;3.79;96.00;100301.33;1779232;80;21289;-70
2020/12/20 02:51:53;;;;;;;30.72;14.50;;;;;;;3.76;95.80;100303.30;1779521;81;21111;-75
2020/12/20 02:54:21;;;;;;;42.67;16.25;;;;;;;3.73;95.77;100299.30;1779419;79;21131;-73
2020/12/20 02:56:50;;;;;;;40.40;18.73;;;;;;;3.71;95.74;100300.88;1779559;79;21220;-73
2020/12/20 02:59:23;;;;;;;40.43;16.37;;;;;;;3.72;95.86;100308.17;1778667;79;21183;-72
2020/12/20 03:01:51;;;;;;;39.35;16.40;;;;;;;3.73;95.84;100308.23;1779479;81;21127;-71
2020/12/20 03:04:19;;;;;;;32.03;15.50;;;;;;;3.75;95.79;100305.79;1779772;80;21586;-71
2020/12/20 03:06:48;;;;;;;30.95;14.70;;;;;;;3.66;95.49;100305.73;1776379;80;21130;-68
2020/12/20 03:09:15;;;;;;;33.92;16.27;;;;;;;3.60;95.76;100307.90;1793737;79;21134;-70
2020/12/20 03:11:43;;;;;;;35.92;16.00;;;;;;;3.65;96.07;100303.95;1793855;80;21304;-72
2020/12/20 03:14:11;;;;;;;38.53;18.02;;;;;;;3.72;96.03;100303.94;1793877;79;21107;-72
2020/12/20 03:16:40;;;;;;;46.83;18.65;;;;;;;3.78;95.94;100303.41;1792788;79;21213;-73
2020/12/20 03:19:08;;;;;;;42.30;21.12;;;;;;;3.79;95.74;100307.72;1793882;80;21687;-68
2020/12/20 03:21:37;;;;;;;43.90;20.65;;;;;;;3.79;95.67;100311.55;1793385;80;21146;-69
2020/12/20 03:24:23;;;;;;;42.05;19.85;;;;;;;3.78;95.67;100309.39;1793292;80;21139;-71
2020/12/20 03:26:52;;;;;;;47.17;20.32;;;;;;;3.80;95.63;100313.33;1792752;79;21133;-69
2020/12/20 03:29:25;;;;;;;39.00;18.12;;;;;;;3.81;95.65;100320.19;1791322;79;21170;-70
2020/12/20 03:31:54;;;;;;;40.40;19.98;;;;;;;3.84;95.56;100322.55;1792064;79;21118;-72
2020/12/20 03:34:24;;;;;;;43.58;20.72;;;;;;;3.82;95.44;100321.56;1788641;79;21711;-74
2020/12/20 03:36:56;;;;;;;41.08;20.52;;;;;;;3.79;95.40;100329.42;1788246;80;21146;-71
2020/12/20 03:39:25;;;;;;;40.90;20.92;;;;;;;3.75;95.48;100332.59;1793085;79;21135;-68
2020/12/20 03:41:53;;;;;;;56.20;24.30;;;;;;;3.65;95.59;100331.16;1793271;79;21111;-75
2020/12/20 03:44:22;;;;;;;46.90;22.98;;;;;;;3.67;95.88;100333.41;1793298;79;21162;-73
2020/12/20 03:46:52;;;;;;;48.78;20.88;;;;;;;3.68;95.92;100333.48;1793375;79;21280;-70
2020/12/20 03:49:21;;;;;;;38.25;20.32;;;;;;;3.69;95.90;100343.33;1793297;79;21593;-74
2020/12/20 03:51:49;;;;;;;49.98;23.38;;;;;;;3.66;95.84;100341.47;1793270;79;21170;-74
2020/12/20 03:54:18;;;;;;;42.53;19.77;;;;;;;3.64;95.97;100339.22;1792906;79;21265;-73
2020/12/20 03:56:46;;;;;;;37.88;18.15;;;;;;;3.66;95.96;100345.30;1793488;80;21545;-70
2020/12/20 03:59:16;;;;;;;45.75;21.45;;;;;;;3.71;95.93;100350.66;1793219;78;21632;-71
2020/12/20 04:01:44;;;;;;;47.43;20.75;;;;;;;3.68;95.73;100351.35;1793159;80;21277;-72
2020/12/20 04:04:12;;;;;;;40.50;18.07;;;;;;;3.63;95.83;100346.37;1793366;79;21126;-68
2020/12/20 04:06:41;;;;;;;41.68;19.23;;;;;;;3.62;95.96;100347.17;1793088;78;21174;-73
2020/12/20 04:09:09;;;;;;;42.03;19.80;;;;;;;3.60;95.95;100358.08;1793138;80;21182;-69
2020/12/20 04:11:51;;;;;;;38.20;19.50;;;;;;;3.56;95.94;100355.74;1792212;78;21166;-69
2020/12/20 04:14:21;;;;;;;48.13;22.13;;;;;;;3.56;96.16;100362.48;1793165;79;21103;-72
2020/12/20 04:16:49;;;;;;;43.78;21.25;;;;;;;3.60;96.30;100360.62;1793344;80;21537;-74
2020/12/20 04:19:17;;;;;;;47.03;20.70;;;;;;;3.65;96.25;100360.11;1793260;80;21142;-71
2020/12/20 04:21:47;;;;;;;46.95;20.75;;;;;;;3.63;95.97;100365.91;1792971;78;21171;-69
2020/12/20 04:24:16;;;;;;;38.42;19.02;;;;;;;3.58;95.97;100375.83;1790456;79;21146;-71
2020/12/20 04:26:45;;;;;;;34.40;17.80;;;;;;;3.58;96.18;100378.38;1793054;79;21138;-74
2020/12/20 04:29:15;;;;;;;36.10;17.05;;;;;;;3.61;96.25;100382.80;1792754;79;21272;-70
2020/12/20 04:31:44;;;;;;;41.58;19.48;;;;;;;3.62;95.99;100387.13;1793089;79;21114;-69
2020/12/20 04:34:13;;;;;;;39.48;19.55;;;;;;;3.63;96.02;100386.33;1793135;78;21561;-70
2020/12/20 04:36:41;;;;;;;35.68;16.10;;;;;;;3.64;95.96;100388.12;1793272;79;21155;-74
2020/12/20 04:39:10;;;;;;;37.75;17.35;;;;;;;3.64;95.87;100392.82;1791500;79;21138;-73
2020/12/20 04:41:38;;;;;;;34.33;16.25;;;;;;;3.62;95.86;100391.84;1793003;80;21146;-74
2020/12/20 04:44:08;;;;;;;40.40;17.57;;;;;;;3.66;96.01;100393.80;1793313;80;21537;-71
2020/12/20 04:46:37;;;;;;;30.50;15.45;;;;;;;3.70;95.89;100393.58;1775629;80;21214;-69
2020/12/20 04:49:14;;;;;;;31.20;14.23;;;;;;;3.72;95.80;100399.67;1792290;79;21142;-71
2020/12/20 04:51:45;;;;;;;35.30;16.37;;;;;;;3.70;95.67;100399.56;1792315;79;21510;-71
2020/12/20 04:54:13;;;;;;;31.20;14.53;;;;;;;3.69;95.59;100396.94;1775594;80;21111;-75
2020/12/20 04:56:41;;;;;;;34.45;16.67;;;;;;;3.68;95.67;100393.48;1793364;80;21154;-71
2020/12/20 04:59:12;;;;;;;34.85;16.20;;;;;;;3.73;95.67;100391.61;1792621;79;21576;-71
2020/12/20 05:01:41;;;;;;;29.15;14.63;;;;;;;3.75;95.57;100393.88;1792325;79;21126;-69
2020/12/20 05:04:10;;;;;;;31.60;14.47;;;;;;;3.79;95.47;100394.53;1793299;80;21530;-76
2020/12/20 05:06:39;;;;;;;36.42;16.37;;;;;;;3.79;95.31;100399.27;1782565;79;21139;-74
2020/12/20 05:09:09;;;;;;;35.52;16.60;;;;;;;3.78;95.21;100407.69;1767265;81;21138;-73
2020/12/20 05:11:43;;;;;;;36.20;16.27;;;;;;;3.79;95.22;100400.91;1778970;80;21700;-71
2020/12/20 05:14:14;;;;;;;37.10;15.28;;;;;;;3.81;95.19;100396.78;1779293;79;21131;-73
2020/12/20 05:16:53;;;;;;;30.23;14.47;;;;;;;3.84;95.11;100401.70;1778619;80;21159;-73
2020/12/20 05:19:31;;;;;;;35.58;15.45;;;;;;;3.86;94.97;100400.09;1779193;79;21123;-71
2020/12/20 05:22:17;;;;;;;28.90;12.93;;;;;;;3.88;94.76;100401.48;1778697;80;21577;-73
2020/12/20 05:24:49;;;;;;;26.52;12.55;;;;;;;3.87;94.60;100394.62;1779756;81;21265;-70
2020/12/20 05:27:28;;;;;;;29.20;12.98;;;;;;;3.85;94.60;100394.92;1780148;81;21169;-72
2020/12/20 05:30:16;;;;;;;30.97;13.62;;;;;;;3.84;94.52;100394.05;1779816;80;21294;-72
2020/12/20 05:32:46;;;;;;;31.75;14.07;;;;;;;3.83;94.44;100403.75;1768913;81;21313;-67
2020/12/20 05:35:16;;;;;;;37.75;15.63;;;;;;;3.80;94.42;100407.80;1780060;80;21728;-72
2020/12/20 05:37:45;;;;;;;33.15;15.32;;;;;;;3.78;94.43;100413.20;1779983;81;21577;-71
2020/12/20 05:40:30;;;;;;;29.35;14.28;;;;;;;3.77;94.54;100415.28;1778964;80;21111;-73
2020/12/20 05:43:06;;;;;;;32.53;14.95;;;;;;;3.77;94.48;100419.11;1779649;79;21155;-71
2020/12/20 05:45:37;;;;;;;30.32;14.38;;;;;;;3.78;94.48;100419.59;1779534;80;21671;-73
2020/12/20 05:48:18;;;;;;;30.12;13.78;;;;;;;3.83;94.51;100425.86;1771309;79;21722;-75
2020/12/20 05:50:57;;;;;;;34.10;15.15;;;;;;;3.86;94.12;100428.19;1779594;81;21683;-71
2020/12/20 05:53:30;;;;;;;29.48;14.87;;;;;;;3.86;94.01;100431.14;1779436;81;21265;-69
2020/12/20 05:55:59;;;;;;;;;;;;;;;3.83;93.93;100427.13;1781712;80;21147;-68
2020/12/20 05:58:34;;;;;;;32.73;15.75;;;;;;;3.82;93.97;100436.47;1779357;81;20129;-69
2020/12/20 06:01:03;;;;;;;41.37;13.90;;;;;;;3.82;94.07;100436.47;1779565;79;21668;-69
2020/12/20 06:03:30;;;;;;;29.45;13.80;;;;;;;3.85;94.01;100436.66;1779300;79;21246;-72
2020/12/20 06:06:02;;;;;;;40.28;22.22;;;;;;;3.87;93.69;100438.03;1779350;80;21163;-73
2020/12/20 06:08:32;;;;;;;51.48;28.65;;;;;;;3.84;93.44;100437.82;1779595;81;21197;-73
2020/12/20 06:11:03;;;;;;;39.73;20.72;;;;;;;3.80;93.49;100438.04;1779325;81;21382;-76
2020/12/20 06:13:34;;;;;;;29.02;14.23;;;;;;;3.75;93.33;100437.28;1779306;81;21166;-69
2020/12/20 06:16:07;;;;;;;38.63;21.65;;;;;;;3.69;93.52;100441.22;1779721;79;21367;-71
2020/12/20 06:18:40;;;;;;;27.13;13.58;;;;;;;3.67;93.66;100444.06;1780012;81;21566;-76
2020/12/20 06:21:11;;;;;;;26.70;14.83;;;;;;;3.69;93.69;100450.55;1778465;80;21131;-71
2020/12/20 06:23:42;;;;;;;25.55;11.83;;;;;;;3.73;93.63;100447.78;1794306;79;21278;-73
2020/12/20 06:26:15;;;;;;;19.92;11.10;;;;;;;3.77;93.36;100453.58;1779657;80;21664;-69
2020/12/20 06:28:47;;;;;;;23.27;11.18;;;;;;;3.76;93.04;100460.33;1794643;79;21143;-70
2020/12/20 06:31:19;;;;;;;19.80;10.63;;;;;;;3.75;92.77;100466.23;1779505;79;21100;-69
2020/12/20 06:33:50;;;;;;;25.35;12.20;;;;;;;3.75;92.73;100464.09;1779710;81;21107;-68
2020/12/20 06:36:21;;;;;;;26.42;12.53;;;;;;;3.76;92.70;100472.22;1779521;79;21128;-67
2020/12/20 06:39:18;;;;;;;22.83;11.60;;;;;;;3.79;92.66;100472.41;1779957;81;21159;-70
2020/12/20 06:41:50;;;;;;;23.77;12.00;;;;;;;3.79;92.47;100476.23;1709655;84;21718;-69
2020/12/20 06:44:18;;;;;;;23.57;11.87;;;;;;;3.74;92.25;100461.02;1687834;84;21576;-69
2020/12/20 06:46:46;;;;;;;29.25;13.95;;;;;;;3.67;92.14;100470.87;1711958;84;21166;-68
2020/12/20 06:49:44;;;;;;;24.87;12.65;;;;;;;3.65;92.38;100471.16;1708225;82;21587;-66
2020/12/20 06:52:27;;;;;;;25.62;12.35;;;;;;;3.67;92.38;100478.52;1712247;82;21298;-71
2020/12/20 06:55:12;;;;;;;24.23;13.15;;;;;;;3.67;92.21;100467.04;1711582;82;21132;-70
2020/12/20 06:58:05;;;;;;;24.25;12.33;;;;;;;3.68;92.16;100477.73;1711839;82;21181;-68
2020/12/20 07:00:53;;;;;;;24.90;13.10;;;;;;;3.64;92.03;100473.23;1711936;82;21620;-73
2020/12/20 07:03:32;;;;;;;24.10;12.95;;;;;;;3.58;92.26;100471.95;1710655;84;21307;-68
2020/12/20 07:06:18;;;;;;;28.12;14.55;;;;;;;3.57;92.41;100468.92;1685495;84;21310;-66
2020/12/20 07:08:57;;;;;;;41.83;19.10;;;;;;;3.61;92.45;100469.22;1711623;82;21286;-67
2020/12/20 07:11:28;;;;;;;30.90;15.90;;;;;;;3.66;92.41;100476.77;1711897;82;21180;-67
2020/12/20 07:13:57;;;;;;;33.42;16.07;;;;;;;3.69;92.37;100481.19;1712021;82;21173;-68
2020/12/20 07:16:39;;;;;;;34.13;16.32;;;;;;;3.74;92.33;100476.34;1711751;83;21118;-66
2020/12/20 07:19:09;;;;;;;28.38;14.33;;;;;;;3.77;92.25;100482.94;1711978;82;21150;-72
2020/12/20 07:21:59;;;;;;;30.92;14.87;;;;;;;3.79;92.08;100486.08;1712080;84;21641;-68
2020/12/20 07:24:33;;;;;;;28.95;15.78;;;;;;;3.81;91.94;100487.44;1711882;84;21182;-67
2020/12/20 07:27:05;;;;;;;27.13;14.55;;;;;;;3.81;91.72;100486.16;1712076;84;21134;-69
2020/12/20 07:29:36;;;;;;;26.80;14.35;;;;;;;3.78;91.68;100486.84;1712054;82;21133;-66
2020/12/20 07:32:04;;;;;;;28.67;15.75;;;;;;;3.77;91.72;100486.77;1712274;84;21370;-71
2020/12/20 07:34:33;;;;;;;37.40;18.57;;;;;;;3.76;91.63;100493.52;1707938;82;21158;-70
2020/12/20 07:37:01;;;;;;;43.83;20.75;;;;;;;3.76;91.61;100492.64;1711961;82;21165;-70
2020/12/20 07:39:29;;;;;;;60.65;25.55;;;;;;;3.78;91.59;100488.53;1712204;83;21134;-68
2020/12/20 07:41:59;;;;;;;39.55;19.48;;;;;;;3.79;91.52;100490.28;1712261;84;21328;-68
2020/12/20 07:44:33;;;;;;;87.67;42.55;;;;;;;3.83;91.46;100496.08;1712522;82;21568;-66
2020/12/20 07:47:11;;;;;;;94.85;47.40;;;;;;;3.84;91.24;100497.83;1711902;84;21122;-65
2020/12/20 07:49:38;;;;;;;50.28;25.10;;;;;;;3.86;91.24;100501.37;1712038;84;21126;-67
2020/12/20 07:52:09;;;;;;;38.33;19.17;;;;;;;3.89;91.11;100505.02;1712244;82;21138;-66
2020/12/20 07:54:37;;;;;;;33.85;17.27;;;;;;;3.91;90.98;100505.09;1712421;84;21335;-69
2020/12/20 07:57:05;;;;;;;38.63;17.05;;;;;;;3.94;90.93;100505.28;1711675;83;21149;-70
2020/12/20 07:59:35;;;;;;;34.33;18.52;;;;;;;4.02;90.83;100513.05;1711837;84;21165;-70
2020/12/20 08:02:02;;;;;;;32.75;17.20;;;;;;;4.08;90.77;100507.02;1711815;84;21288;-72
2020/12/20 08:04:30;;;;;;;33.40;17.55;;;;;;;4.14;90.53;100507.39;1712095;83;21695;-67
2020/12/20 08:06:58;;;;;;;35.50;17.60;;;;;;;4.23;90.45;100510.05;1712030;84;21141;-68
2020/12/20 08:09:27;;;;;;;39.78;20.97;;;;;;;4.28;90.16;100508.65;1712147;82;21303;-67
2020/12/20 08:11:56;;;;;;;35.20;17.98;;;;;;;4.33;90.17;100504.70;1711854;84;21291;-69
2020/12/20 08:14:24;;;;;;;35.65;19.75;;;;;;;4.43;90.09;100497.20;1712083;84;21134;-67
2020/12/20 08:16:54;;;;;;;33.10;17.90;;;;;;;4.53;89.75;100499.11;1712067;84;21166;-68
2020/12/20 08:19:28;;;;;;;36.35;18.92;;;;;;;4.62;89.32;100501.31;1656192;84;21624;-66
2020/12/20 08:22:14;;;;;;;33.33;17.90;;;;;;;4.66;88.96;100497.28;1639457;82;22188;-72
2020/12/20 08:24:46;;;;;;;37.48;20.02;;;;;;;4.70;88.83;100500.09;1711964;84;21161;-69
2020/12/20 08:27:30;;;;;;;44.65;21.57;;;;;;;4.69;88.65;100501.30;1712152;84;21169;-67
2020/12/20 08:30:05;;;;;;;39.38;23.38;;;;;;;4.61;88.34;100501.25;1712117;84;21580;-69
2020/12/20 08:32:42;;;;;;;40.88;23.75;;;;;;;4.56;88.36;100502.25;1712052;84;21560;-71
2020/12/20 08:35:21;;;;;;;30.17;15.43;;;;;;;4.49;88.54;100499.70;1711008;84;21183;-72
2020/12/20 08:37:59;;;;;;;28.10;15.72;;;;;;;4.51;87.94;100506.20;1710323;84;21309;-72
2020/12/20 08:40:32;;;;;;;28.57;15.85;;;;;;;4.32;87.88;100514.41;1706732;84;21175;-67
2020/12/20 08:43:01;;;;;;;32.28;15.72;;;;;;;4.20;88.54;100515.84;1711532;82;21298;-70
2020/12/20 08:45:32;;;;;;;28.90;15.25;;;;;;;4.25;88.55;100519.57;1717880;83;21293;-69
2020/12/20 08:48:02;;;;;;;29.75;16.07;;;;;;;4.26;88.49;100518.77;1716545;82;21125;-69
2020/12/20 08:50:32;;;;;;;32.90;16.90;;;;;;;4.28;88.61;100518.87;1700710;83;21165;-67
2020/12/20 08:53:02;;;;;;;33.18;17.80;;;;;;;4.34;88.64;100517.55;1701294;83;21173;-69
2020/12/20 08:55:31;;;;;;;33.08;17.85;;;;;;;4.36;88.44;100516.38;1701132;83;21181;-73
2020/12/20 08:58:06;;;;;;;32.60;17.55;;;;;;;4.37;88.53;100521.97;1701127;84;21133;-68
2020/12/20 09:00:35;;;;;;;33.75;17.35;;;;;;;4.29;88.38;100522.78;1700747;83;21181;-70
2020/12/20 09:03:06;;;;;;;33.18;17.98;;;;;;;4.19;88.42;100525.96;1701092;83;21588;-70
2020/12/20 09:05:35;;;;;;;34.70;15.58;;;;;;;4.10;88.54;100522.06;1700994;83;21576;-72
2020/12/20 09:08:05;;;;;;;34.45;17.87;;;;;;;4.01;88.49;100516.37;1700615;83;21173;-68
2020/12/20 09:10:35;;;;;;;33.08;18.35;;;;;;;3.86;88.84;100516.69;1711364;82;21129;-71
2020/12/20 09:13:08;;;;;;;32.70;17.20;;;;;;;3.84;89.22;100514.43;1717788;82;21160;-72
2020/12/20 09:15:39;;;;;;;34.50;19.25;;;;;;;3.94;89.22;100514.22;1717685;82;21298;-69
2020/12/20 09:18:18;;;;;;;34.53;19.20;;;;;;;4.05;89.22;100512.35;1711813;82;21149;-69
2020/12/20 09:20:46;;;;;;;36.90;20.65;;;;;;;4.20;89.22;100514.57;1694474;83;21137;-69
2020/12/20 09:23:34;;;;;;;34.27;19.40;;;;;;;4.34;88.88;100520.51;1700911;83;21304;-75
2020/12/20 09:26:04;;;;;;;36.45;20.75;;;;;;;4.48;88.51;100521.36;1733811;83;21133;-71
2020/12/20 09:28:44;;;;;;;39.08;20.82;;;;;;;4.31;88.13;100516.50;1681232;85;21172;-71
2020/12/20 09:31:16;;;;;;;34.63;21.42;;;;;;;4.33;88.18;100517.48;1665817;84;21312;-73
2020/12/20 09:33:48;;;;;;;42.38;22.37;;;;;;;4.38;88.26;100516.08;1641582;87;21383;-77
2020/12/20 09:36:24;;;;;;;40.30;23.15;;;;;;;4.49;88.05;100511.20;1670153;86;21197;-75
2020/12/20 09:38:55;;;;;;;45.33;24.20;;;;;;;4.55;87.79;100511.97;1641864;87;21628;-72
2020/12/20 09:41:26;;;;;;;42.33;23.75;;;;;;;4.63;87.59;100507.30;1651799;87;21171;-74
2020/12/20 09:43:55;;;;;;;39.80;22.48;;;;;;;4.65;87.00;100500.62;1681795;85;21185;-74
2020/12/20 09:46:38;;;;;;;37.42;22.05;;;;;;;4.65;86.71;100515.95;1673067;86;21345;-72
2020/12/20 09:49:06;;;;;;;37.95;22.77;;;;;;;4.63;86.52;100513.33;1673498;86;21312;-68
2020/12/20 09:51:34;;;;;;;39.05;21.57;;;;;;;4.60;86.52;100519.91;1673215;86;21550;-71
2020/12/20 09:54:02;;;;;;;38.83;22.58;;;;;;;4.62;86.46;100513.22;1673270;86;21333;-70
2020/12/20 09:56:29;;;;;;;43.48;21.48;;;;;;;4.69;86.30;100516.64;1673089;86;21195;-74
2020/12/20 09:58:57;;;;;;;32.65;19.85;;;;;;;4.75;85.66;100512.75;1672819;86;21206;-73
2020/12/20 10:01:28;;;;;;;37.63;21.65;;;;;;;4.74;85.72;100516.52;1677767;84;21197;-71
2020/12/20 10:03:57;;;;;;;35.40;21.07;;;;;;;4.72;85.35;100517.69;1682468;85;21600;-76
2020/12/20 10:06:25;;;;;;;37.53;21.10;;;;;;;4.75;85.25;100519.14;1664946;86;21246;-71
2020/12/20 10:08:53;;;;;;;32.95;20.52;;;;;;;4.74;85.21;100511.41;1645520;87;21176;-69
2020/12/20 10:11:21;;;;;;;35.08;21.12;;;;;;;4.82;85.17;100515.28;1645563;87;21338;-70
2020/12/20 10:13:51;;;;;;;35.15;20.17;;;;;;;4.92;84.92;100519.27;1645705;87;21769;-72
2020/12/20 10:16:19;;;;;;;35.20;18.37;;;;;;;4.99;84.47;100513.32;1645522;87;21189;-72
2020/12/20 10:18:47;;;;;;;35.40;19.42;;;;;;;5.06;84.16;100517.50;1645747;87;21640;-73
2020/12/20 10:21:16;;;;;;;38.42;20.35;;;;;;;5.08;83.65;100512.08;1645620;87;21181;-74
2020/12/20 10:23:45;;;;;;;38.23;19.90;;;;;;;4.98;83.71;100512.81;1644990;87;21153;-70
2020/12/20 10:26:14;;;;;;;32.60;18.17;;;;;;;4.91;83.74;100518.39;1645742;87;21636;-71
2020/12/20 10:28:42;;;;;;;34.70;19.73;;;;;;;4.74;83.85;100508.44;1650881;86;21429;-72
2020/12/20 10:31:10;;;;;;;36.25;18.80;;;;;;;4.70;84.13;100510.72;1622192;87;21185;-73
2020/12/20 10:33:37;;;;;;;32.55;18.98;;;;;;;4.66;84.17;100504.95;1682842;85;21174;-70
2020/12/20 10:36:05;;;;;;;35.35;19.12;;;;;;;4.58;84.35;100512.17;1653399;87;21162;-75
2020/12/20 10:38:33;;;;;;;31.70;17.87;;;;;;;4.47;84.47;100506.39;1701312;84;21619;-72
2020/12/20 10:41:03;;;;;;;27.67;15.72;;;;;;;4.37;84.67;100510.86;1654374;87;21411;-73
2020/12/20 10:43:30;;;;;;;29.32;16.23;;;;;;;4.19;84.90;100510.23;1669372;86;21186;-69
2020/12/20 10:45:58;;;;;;;30.70;17.90;;;;;;;4.04;85.21;100511.44;1714708;83;21169;-73
2020/12/20 10:48:25;;;;;;;29.63;17.27;;;;;;;3.93;85.52;100512.46;1673405;83;21199;-69
2020/12/20 10:50:53;;;;;;;29.32;17.48;;;;;;;3.83;86.00;100507.57;1636543;88;21342;-69
2020/12/20 10:53:21;;;;;;;32.78;17.52;;;;;;;3.76;86.36;100506.69;1667041;85;21173;-74
2020/12/20 10:55:48;;;;;;;33.78;17.55;;;;;;;3.73;86.46;100511.21;1636817;88;21195;-71
2020/12/20 10:58:16;;;;;;;27.95;15.85;;;;;;;3.61;86.87;100509.16;1667070;85;21172;-70
2020/12/20 11:00:45;;;;;;;30.27;16.70;;;;;;;3.58;87.39;100513.67;1621013;85;21651;-70
2020/12/20 11:03:12;;;;;;;27.37;16.70;;;;;;;3.53;87.63;100516.72;1622089;88;21320;-70
2020/12/20 11:05:40;;;;;;;30.82;16.82;;;;;;;3.50;87.85;100505.92;1638703;87;21215;-70
2020/12/20 11:08:08;;;;;;;28.47;16.90;;;;;;;3.64;88.21;100507.70;1620932;88;21616;-72
2020/12/20 11:10:35;;;;;;;30.27;16.65;;;;;;;3.83;88.09;100512.28;1638645;87;21199;-72
2020/12/20 11:13:02;;;;;;;30.25;16.52;;;;;;;3.96;87.95;100508.81;1620925;88;21213;-69
2020/12/20 11:15:30;;;;;;;29.18;16.95;;;;;;;4.06;87.66;100511.55;1640918;84;21163;-71
2020/12/20 11:17:57;;;;;;;33.20;18.95;;;;;;;4.17;87.60;100510.92;1649572;85;21398;-73
2020/12/20 11:20:25;;;;;;;31.73;17.70;;;;;;;4.30;87.40;100513.44;1701136;84;21299;-71
2020/12/20 11:22:54;;;;;;;35.35;16.95;;;;;;;4.39;86.84;100512.72;1678285;85;21201;-71
2020/12/20 11:25:22;;;;;;;29.32;16.85;;;;;;;4.41;86.40;100517.54;1647471;87;21197;-69
2020/12/20 11:27:49;;;;;;;25.72;13.70;;;;;;;4.41;85.98;100512.83;1697038;84;21194;-73
2020/12/20 11:30:17;;;;;;;27.85;15.45;;;;;;;4.25;85.63;100513.55;1667971;86;21189;-69
2020/12/20 11:32:44;;;;;;;27.50;15.28;;;;;;;3.95;85.89;100514.72;1667801;85;21202;-73
2020/12/20 11:35:14;;;;;;;30.20;15.30;;;;;;;3.73;86.47;100510.33;1667853;85;21173;-70